Time;durP1;ratioP1;P1;durP2;ratioP2;P2;SDS_P1;SDS_P2;PMS_P1;PMS_P2;Temp;Humidity;BMP_temperature;BMP_pressure;BME280_temperature;BME280_humidity;BME280_pressure;Samples;Min_cycle;Max_cycle;Signal;HPM_P1;HPM_P2
2023/05/31 00:02:12;;;;;;;;;;;10.60;99.90;;;;;;5116478;27;19968;-71
2023/05/31 00:04:38;;;;;;;;;;;10.60;99.90;;;;;;5132787;27;19993;-71
2023/05/31 00:07:04;;;;;;;;;;;10.60;99.90;;;;;;5116762;27;20407;-71
2023/05/31 00:09:30;;;;;;;;;;;10.60;99.90;;;;;;5133192;27;19923;-72
2023/05/31 00:11:55;;;;;;;;;;;10.60;99.90;;;;;;5135094;27;19924;-71
2023/05/31 00:14:21;;;;;;;;;;;10.50;99.90;;;;;;5135128;27;19953;-71
2023/05/31 00:16:47;;;;;;;;;;;10.50;99.90;;;;;;5115937;27;19923;-71
2023/05/31 00:19:12;;;;;;;;;;;10.50;99.90;;;;;;5133035;27;20022;-71
2023/05/31 00:21:38;;;;;;;;;;;10.40;99.90;;;;;;5115892;27;19983;-71
2023/05/31 00:24:04;;;;;;;;;;;10.50;99.90;;;;;;5132970;27;19966;-71
2023/05/31 00:26:29;;;;;;;;;;;10.40;99.90;;;;;;5133061;27;20426;-72
2023/05/31 00:28:55;;;;;;;;;;;10.40;99.90;;;;;;5133386;27;19923;-72
2023/05/31 00:31:20;;;;;;;;;;;10.40;99.90;;;;;;5133412;27;20433;-71
2023/05/31 00:33:46;;;;;;;;;;;10.40;99.90;;;;;;5132792;27;19963;-73
2023/05/31 00:36:11;;;;;;;;;;;10.40;99.90;;;;;;5133444;27;19924;-73
2023/05/31 00:38:37;;;;;;;;;;;10.40;99.90;;;;;;5132647;27;19930;-70
2023/05/31 00:41:03;;;;;;;;;;;10.40;99.90;;;;;;5133202;27;19930;-71
2023/05/31 00:43:28;;;;;;;;;;;10.30;99.90;;;;;;5133157;27;20026;-70
2023/05/31 00:45:54;;;;;;;;;;;10.30;99.90;;;;;;5115313;27;19924;-71
2023/05/31 00:48:20;;;;;;;;;;;10.20;99.90;;;;;;5115674;27;19930;-71
2023/05/31 00:50:45;;;;;;;;;;;10.30;99.90;;;;;;5133653;27;19923;-72
2023/05/31 00:53:11;;;;;;;;;;;10.30;99.90;;;;;;5167443;27;19923;-72
2023/05/31 00:55:37;;;;;;;;;;;10.20;99.90;;;;;;5114769;27;19924;-73
2023/05/31 00:58:03;;;;;;;;;;;10.20;99.90;;;;;;5133839;27;19923;-72
2023/05/31 01:00:29;;;;;;;;;;;10.20;99.90;;;;;;5132813;27;19975;-72
2023/05/31 01:02:55;;;;;;;;;;;10.20;99.90;;;;;;5131991;27;19919;-73
2023/05/31 01:05:21;;;;;;;;;;;10.20;99.90;;;;;;5132568;27;19930;-71
2023/05/31 01:07:46;;;;;;;;;;;10.10;99.90;;;;;;5166882;27;19930;-72
2023/05/31 01:10:13;;;;;;;;;;;10.10;99.90;;;;;;5132299;27;20001;-72
2023/05/31 01:12:45;;;;;;;;;;;10.10;99.90;;;;;;5149332;27;19928;-73
2023/05/31 01:15:22;;;;;;;;;;;10.00;99.90;;;;;;5131798;27;19924;-72
2023/05/31 01:17:48;;;;;;;;;;;10.10;99.90;;;;;;5131835;27;20018;-72
2023/05/31 01:20:17;;;;;;;;;;;10.00;99.90;;;;;;5115401;27;19944;-72
2023/05/31 01:22:52;;;;;;;;;;;10.00;99.90;;;;;;5114697;27;20395;-72
2023/05/31 01:25:33;;;;;;;;;;;10.00;99.90;;;;;;5132445;27;19928;-72
2023/05/31 01:27:59;;;;;;;;;;;10.00;99.90;;;;;;5114596;27;19952;-72
2023/05/31 01:30:26;;;;;;;;;;;10.00;99.90;;;;;;5132210;27;19969;-72
2023/05/31 01:32:54;;;;;;;;;;;10.00;99.90;;;;;;5131904;27;20300;-73
2023/05/31 01:35:19;;;;;;;;;;;9.90;99.90;;;;;;5132732;27;20480;-72
2023/05/31 01:37:45;;;;;;;;;;;9.90;99.90;;;;;;5114577;27;20025;-73
2023/05/31 01:40:12;;;;;;;;;;;9.90;99.90;;;;;;5114729;27;19934;-72
2023/05/31 01:42:37;;;;;;;;;;;9.90;99.90;;;;;;5132125;27;19924;-72
2023/05/31 01:45:03;;;;;;;;;;;9.80;99.90;;;;;;5132766;27;20407;-73
2023/05/31 01:47:30;;;;;;;;;;;9.80;99.90;;;;;;5165947;27;19928;-72
2023/05/31 01:49:56;;;;;;;;;;;9.80;99.90;;;;;;5148823;27;19923;-70
2023/05/31 01:52:22;;;;;;;;;;;9.80;99.90;;;;;;5131647;27;20338;-70
2023/05/31 01:54:47;;;;;;;;;;;9.70;99.90;;;;;;5114095;27;19923;-74
2023/05/31 01:57:14;;;;;;;;;;;9.70;99.90;;;;;;5131562;27;20340;-73
2023/05/31 01:59:39;;;;;;;;;;;9.70;99.90;;;;;;5166347;27;20377;-71
2023/05/31 02:02:05;;;;;;;;;;;9.70;99.90;;;;;;5114566;28;19927;-71
2023/05/31 02:04:31;;;;;;;;;;;9.70;99.90;;;;;;5149061;27;19923;-71
2023/05/31 02:06:57;;;;;;;;;;;9.70;99.90;;;;;;5131448;28;20284;-71
2023/05/31 02:09:23;;;;;;;;;;;9.60;99.90;;;;;;5097578;28;20381;-71
2023/05/31 02:11:49;;;;;;;;;;;9.60;99.90;;;;;;5131313;28;19928;-72
2023/05/31 02:14:15;;;;;;;;;;;9.60;99.90;;;;;;5166196;27;19923;-72
2023/05/31 02:16:40;;;;;;;;;;;9.60;99.90;;;;;;5114463;28;19923;-71
2023/05/31 02:19:06;;;;;;;;;;;9.50;99.90;;;;;;5113798;28;19974;-72
2023/05/31 02:21:37;;;;;;;;;;;9.50;99.90;;;;;;5132722;28;20360;-71
2023/05/31 02:24:03;;;;;;;;;;;9.50;99.90;;;;;;5131125;28;20099;-72
2023/05/31 02:26:28;;;;;;;;;;;9.50;99.90;;;;;;5115373;27;19927;-71
2023/05/31 02:28:54;;;;;;;;;;;9.50;99.90;;;;;;5136543;27;19924;-72
2023/05/31 02:31:20;;;;;;;;;;;9.40;99.90;;;;;;5135439;27;19924;-71
2023/05/31 02:33:45;;;;;;;;;;;9.40;99.90;;;;;;5134890;27;19924;-71
2023/05/31 02:36:11;;;;;;;;;;;9.40;99.90;;;;;;5135525;27;19968;-71
2023/05/31 02:38:37;;;;;;;;;;;9.40;99.90;;;;;;5135573;27;19923;-71
2023/05/31 02:41:02;;;;;;;;;;;9.40;99.90;;;;;;5135281;27;19942;-71
2023/05/31 02:43:30;;;;;;;;;;;9.40;99.90;;;;;;5136458;27;19927;-71
2023/05/31 02:45:56;;;;;;;;;;;9.30;99.90;;;;;;5117924;27;19924;-71
2023/05/31 02:48:21;;;;;;;;;;;9.30;99.90;;;;;;5135000;27;20292;-71
2023/05/31 02:50:47;;;;;;;;;;;9.30;99.90;;;;;;5135467;27;19962;-71
2023/05/31 02:53:12;;;;;;;;;;;9.20;99.90;;;;;;5117540;27;19923;-71
2023/05/31 02:55:38;;;;;;;;;;;9.20;99.90;;;;;;5101146;27;20411;-71
2023/05/31 02:58:03;;;;;;;;;;;9.20;99.90;;;;;;5117386;27;19924;-71
2023/05/31 03:00:29;;;;;;;;;;;9.20;99.90;;;;;;5117965;27;19966;-71
2023/05/31 03:02:54;;;;;;;;;;;9.10;99.90;;;;;;5117686;27;19987;-71
2023/05/31 03:05:20;;;;;;;;;;;9.10;99.90;;;;;;5117799;27;19931;-71
2023/05/31 03:07:46;;;;;;;;;;;9.10;99.90;;;;;;5117794;27;20013;-71
2023/05/31 03:10:12;;;;;;;;;;;9.10;99.90;;;;;;5134275;27;20376;-71
2023/05/31 03:12:37;;;;;;;;;;;9.10;99.90;;;;;;5134343;27;19928;-71
2023/05/31 03:15:04;;;;;;;;;;;9.10;99.90;;;;;;5117093;27;19931;-71
2023/05/31 03:17:30;;;;;;;;;;;9.00;99.90;;;;;;5134410;27;19923;-71
2023/05/31 03:19:55;;;;;;;;;;;9.00;99.90;;;;;;5134182;27;19924;-71
2023/05/31 03:22:22;;;;;;;;;;;9.00;99.90;;;;;;5117143;27;19933;-71
2023/05/31 03:24:48;;;;;;;;;;;9.00;99.90;;;;;;5117506;27;20000;-70
2023/05/31 03:27:14;;;;;;;;;;;9.00;99.90;;;;;;5134062;27;19927;-71
2023/05/31 03:29:41;;;;;;;;;;;8.90;99.90;;;;;;5134557;27;19975;-71
2023/05/31 03:32:06;;;;;;;;;;;9.00;99.90;;;;;;5135092;27;19987;-71
2023/05/31 03:34:32;;;;;;;;;;;9.00;99.90;;;;;;5134159;27;20376;-70
2023/05/31 03:36:58;;;;;;;;;;;9.00;99.90;;;;;;5133704;27;19927;-71
2023/05/31 03:39:24;;;;;;;;;;;9.00;99.90;;;;;;5135283;27;19946;-71
2023/05/31 03:41:49;;;;;;;;;;;8.90;99.90;;;;;;5134321;27;19927;-71
2023/05/31 03:44:15;;;;;;;;;;;9.00;99.90;;;;;;5134001;27;20364;-72
2023/05/31 03:46:41;;;;;;;;;;;9.00;99.90;;;;;;5116832;27;19930;-70
2023/05/31 03:49:07;;;;;;;;;;;9.00;99.90;;;;;;5133985;27;19976;-71
2023/05/31 03:51:32;;;;;;;;;;;9.00;99.90;;;;;;5134216;27;19953;-71
2023/05/31 03:53:58;;;;;;;;;;;9.00;99.90;;;;;;5133676;27;19928;-71
2023/05/31 03:56:24;;;;;;;;;;;9.00;99.90;;;;;;5133969;27;19973;-71
2023/05/31 03:58:49;;;;;;;;;;;9.00;99.90;;;;;;5116531;27;19947;-71
2023/05/31 04:01:15;;;;;;;;;;;9.00;99.90;;;;;;5133468;27;19973;-71
2023/05/31 04:03:41;;;;;;;;;;;9.00;99.90;;;;;;5133963;27;19972;-70
2023/05/31 04:06:06;;;;;;;;;;;9.00;99.90;;;;;;5134695;27;19932;-71
2023/05/31 04:08:32;;;;;;;;;;;9.00;99.90;;;;;;5116794;27;19924;-71
2023/05/31 04:10:58;;;;;;;;;;;9.00;99.90;;;;;;5133801;27;19927;-71
2023/05/31 04:13:23;;;;;;;;;;;9.10;99.90;;;;;;5134753;27;19923;-70
2023/05/31 04:15:49;;;;;;;;;;;9.10;99.90;;;;;;5116679;27;20052;-71
2023/05/31 04:18:14;;;;;;;;;;;9.10;99.90;;;;;;5099060;27;20369;-71
2023/05/31 04:20:40;;;;;;;;;;;9.20;99.90;;;;;;5133362;27;20014;-71
2023/05/31 04:23:06;;;;;;;;;;;9.20;99.90;;;;;;5133272;27;19923;-71
2023/05/31 04:25:31;;;;;;;;;;;9.30;99.90;;;;;;5116368;27;19924;-71
2023/05/31 04:27:57;;;;;;;;;;;9.40;99.90;;;;;;5134403;27;19923;-71
2023/05/31 04:30:23;;;;;;;;;;;9.40;99.90;;;;;;5099227;27;19979;-71
2023/05/31 04:32:52;;;;;;;;;;;9.50;99.90;;;;;;5133568;27;19927;-71
2023/05/31 04:35:18;;;;;;;;;;;9.60;99.90;;;;;;5133176;27;20336;-71
2023/05/31 04:37:44;;;;;;;;;;;9.70;99.90;;;;;;5132942;27;19982;-71
2023/05/31 04:40:10;;;;;;;;;;;9.90;99.90;;;;;;5115657;27;19923;-72
2023/05/31 04:42:40;;;;;;;;;;;10.00;99.90;;;;;;5116353;27;19972;-71
2023/05/31 04:45:07;;;;;;;;;;;10.20;99.90;;;;;;5116111;27;20422;-72
2023/05/31 04:47:35;;;;;;;;;;;10.50;99.90;;;;;;5132976;27;19924;-72
2023/05/31 04:50:01;;;;;;;;;;;10.80;99.90;;;;;;5132173;27;19930;-72
2023/05/31 04:52:29;;;;;;;;;;;11.40;99.90;;;;;;5115463;27;19928;-72
2023/05/31 04:54:55;;;;;;;;;;;12.10;99.90;;;;;;5132732;27;20433;-71
2023/05/31 04:57:22;;;;;;;;;;;12.90;99.90;;;;;;5115244;27;19930;-72
2023/05/31 04:59:47;;;;;;;;;;;13.70;99.90;;;;;;5115261;27;19970;-71
2023/05/31 05:02:13;;;;;;;;;;;14.30;99.90;;;;;;5132492;27;19923;-71
2023/05/31 05:04:38;;;;;;;;;;;15.00;99.90;;;;;;5115920;27;19936;-71
2023/05/31 05:07:04;;;;;;;;;;;15.60;99.90;;;;;;5115606;27;20325;-71
2023/05/31 05:09:30;;;;;;;;;;;16.10;99.90;;;;;;5132726;27;20025;-71
2023/05/31 05:11:56;;;;;;;;;;;16.50;99.90;;;;;;5115690;27;19992;-71
2023/05/31 05:14:22;;;;;;;;;;;17.00;99.90;;;;;;5115369;27;20010;-71
2023/05/31 05:16:47;;;;;;;;;;;17.40;99.90;;;;;;5133575;27;20249;-71
2023/05/31 05:19:13;;;;;;;;;;;17.80;99.90;;;;;;5115035;27;19923;-71
2023/05/31 05:21:39;;;;;;;;;;;18.10;99.90;;;;;;5132492;27;19934;-71
2023/05/31 05:24:04;;;;;;;;;;;18.50;99.90;;;;;;5115571;27;19925;-71
2023/05/31 05:26:30;;;;;;;;;;;18.90;99.90;;;;;;5166986;27;20014;-71
2023/05/31 05:28:56;;;;;;;;;;;19.20;99.90;;;;;;5132932;27;20018;-71
2023/05/31 05:31:22;;;;;;;;;;;;;;;;;;5114920;27;19924;-71
2023/05/31 05:33:48;;;;;;;;;;;;;;;;;;5132770;27;20353;-71
2023/05/31 05:36:13;;;;;;;;;;;19.50;99.90;;;;;;5133143;27;20086;-72
2023/05/31 05:38:39;;;;;;;;;;;20.60;99.90;;;;;;5132350;27;19981;-72
2023/05/31 05:41:10;;;;;;;;;;;20.90;99.90;;;;;;5132443;27;19924;-72
2023/05/31 05:43:36;;;;;;;;;;;;;;;;;;5132653;27;19970;-72
2023/05/31 05:46:02;;;;;;;;;;;;;;;;;;5132438;27;19930;-70
2023/05/31 05:48:28;;;;;;;;;;;21.10;99.90;;;;;;5131459;27;19927;-71
2023/05/31 05:50:53;;;;;;;;;;;21.70;99.90;;;;;;5132190;27;19930;-71
2023/05/31 05:53:19;;;;;;;;;;;21.80;99.90;;;;;;5131542;27;19949;-71
2023/05/31 05:55:51;;;;;;;;;;;22.10;99.90;;;;;;5166849;27;19927;-71
2023/05/31 05:58:18;;;;;;;;;;;;;;;;;;5132668;27;19930;-71
2023/05/31 06:00:47;;;;;;;;;;;22.40;99.90;;;;;;5148964;27;19972;-70
2023/05/31 06:03:13;;;;;;;;;;;23.00;99.90;;;;;;5166204;27;19932;-71
2023/05/31 06:05:39;;;;;;;;;;;23.10;99.90;;;;;;5133088;27;19927;-71
2023/05/31 06:08:05;;;;;;;;;;;22.90;99.90;;;;;;5114660;28;19969;-71
2023/05/31 06:10:31;;;;;;;;;;;23.10;99.90;;;;;;5132438;27;19927;-71
2023/05/31 06:12:57;;;;;;;;;;;23.30;99.90;;;;;;5131935;28;19978;-70
2023/05/31 06:15:22;;;;;;;;;;;23.20;99.90;;;;;;5114522;28;19931;-73
2023/05/31 06:17:48;;;;;;;;;;;23.50;99.90;;;;;;5114806;28;19962;-72
2023/05/31 06:20:14;;;;;;;;;;;23.90;99.90;;;;;;5132935;27;19923;-71
2023/05/31 06:22:39;;;;;;;;;;;24.00;99.90;;;;;;5114311;28;19970;-71
2023/05/31 06:25:05;;;;;;;;;;;24.10;99.40;;;;;;5131870;28;20391;-71
2023/05/31 06:27:31;;;;;;;;;;;24.30;99.90;;;;;;5131580;28;20328;-70
2023/05/31 06:29:58;;;;;;;;;;;24.40;99.10;;;;;;5114380;28;20070;-71
2023/05/31 06:32:25;;;;;;;;;;;24.60;99.50;;;;;;5113671;28;19977;-70
2023/05/31 06:34:51;;;;;;;;;;;24.90;98.90;;;;;;5149111;27;20269;-70
2023/05/31 06:37:17;;;;;;;;;;;25.10;98.90;;;;;;5148770;27;20365;-68
2023/05/31 06:39:43;;;;;;;;;;;25.20;98.50;;;;;;5132503;27;19930;-68
2023/05/31 06:42:09;;;;;;;;;;;25.00;98.10;;;;;;5132343;28;20356;-66
2023/05/31 06:44:35;;;;;;;;;;;25.00;98.10;;;;;;5131277;28;19930;-67
2023/05/31 06:47:00;;;;;;;;;;;25.20;98.20;;;;;;5132494;27;20275;-67
2023/05/31 06:49:27;;;;;;;;;;;25.20;97.60;;;;;;5130889;28;19935;-67
2023/05/31 06:51:53;;;;;;;;;;;25.00;98.00;;;;;;5132624;27;19967;-67
2023/05/31 06:54:18;;;;;;;;;;;25.30;98.00;;;;;;5130960;28;19966;-69
2023/05/31 06:56:44;;;;;;;;;;;25.80;98.60;;;;;;5131317;27;19930;-67
2023/05/31 06:59:10;;;;;;;;;;;26.40;96.70;;;;;;5131863;28;20395;-67
2023/05/31 07:01:35;;;;;;;;;;;26.10;97.70;;;;;;5132192;28;19924;-66
2023/05/31 07:04:01;;;;;;;;;;;26.30;97.70;;;;;;5131620;28;20454;-67
2023/05/31 07:06:27;;;;;;;;;;;26.60;96.60;;;;;;5131785;28;19923;-67
2023/05/31 07:08:53;;;;;;;;;;;26.70;96.10;;;;;;5166221;27;20026;-67
2023/05/31 07:11:19;;;;;;;;;;;26.70;96.40;;;;;;5114208;28;20073;-67
2023/05/31 07:13:44;;;;;;;;;;;26.90;96.40;;;;;;5135142;27;19930;-67
2023/05/31 07:16:10;;;;;;;;;;;27.10;96.50;;;;;;5135133;27;19939;-66
2023/05/31 07:18:36;;;;;;;;;;;27.10;96.30;;;;;;5135707;27;20269;-66
2023/05/31 07:21:01;;;;;;;;;;;27.30;95.20;;;;;;5134865;27;19930;-66
2023/05/31 07:23:27;;;;;;;;;;;27.30;96.10;;;;;;5134672;27;19923;-67
2023/05/31 07:25:52;;;;;;;;;;;27.60;95.30;;;;;;5134725;27;19923;-66
2023/05/31 07:28:18;;;;;;;;;;;27.90;95.40;;;;;;5135943;27;19934;-66
2023/05/31 07:30:44;;;;;;;;;;;28.00;95.20;;;;;;5134125;27;20006;-66
2023/05/31 07:33:09;;;;;;;;;;;28.00;95.00;;;;;;5135897;27;19943;-66
2023/05/31 07:35:35;;;;;;;;;;;27.60;94.40;;;;;;5134526;27;19924;-67
2023/05/31 07:38:00;;;;;;;;;;;27.50;94.50;;;;;;5134509;27;20369;-66
2023/05/31 07:40:26;;;;;;;;;;;;;;;;;;5133814;27;19931;-68
2023/05/31 07:42:52;;;;;;;;;;;;;;;;;;5135710;27;19930;-67
2023/05/31 07:45:20;;;;;;;;;;;;;;;;;;5134872;27;20458;-66
2023/05/31 07:47:46;;;;;;;;;;;27.60;94.50;;;;;;5133925;27;19946;-65
2023/05/31 07:50:11;;;;;;;;;;;28.80;93.90;;;;;;5135508;27;20298;-67
2023/05/31 07:52:37;;;;;;;;;;;29.10;93.70;;;;;;5135085;27;19930;-67
2023/05/31 07:55:02;;;;;;;;;;;28.60;92.90;;;;;;5135425;27;19927;-67
2023/05/31 07:57:28;;;;;;;;;;;28.70;92.90;;;;;;5133895;27;20292;-68
2023/05/31 07:59:54;;;;;;;;;;;28.60;93.10;;;;;;5134154;27;19973;-66
2023/05/31 08:02:19;;;;;;;;;;;28.60;93.40;;;;;;5134670;27;19984;-67
2023/05/31 08:04:45;;;;;;;;;;;28.40;93.50;;;;;;5133458;27;20038;-68
2023/05/31 08:07:10;;;;;;;;;;;28.30;93.00;;;;;;5134196;27;19947;-67
2023/05/31 08:09:36;;;;;;;;;;;28.70;93.50;;;;;;5133622;27;20010;-66
2023/05/31 08:12:06;;;;;;;;;;;28.70;92.90;;;;;;5135096;27;19930;-68
2023/05/31 08:14:31;;;;;;;;;;;28.90;92.70;;;;;;5133515;27;19971;-69
2023/05/31 08:16:57;;;;;;;;;;;29.20;93.10;;;;;;5116819;27;19989;-68
2023/05/31 08:19:22;;;;;;;;;;;29.30;92.90;;;;;;5135052;27;19923;-67
2023/05/31 08:21:51;;;;;;;;;;;29.10;92.30;;;;;;5134705;27;19974;-66
2023/05/31 08:24:17;;;;;;;;;;;29.20;92.20;;;;;;5132706;27;20540;-68
2023/05/31 08:26:43;;;;;;;;;;;29.30;92.10;;;;;;5134626;27;20021;-68
2023/05/31 08:29:08;;;;;;;;;;;29.10;91.90;;;;;;5133736;27;19928;-67
2023/05/31 08:31:34;;;;;;;;;;;28.80;92.20;;;;;;5116398;27;19924;-65
2023/05/31 08:34:00;;;;;;;;;;;28.80;92.80;;;;;;5133831;27;20471;-67
2023/05/31 08:36:26;;;;;;;;;;;28.60;92.10;;;;;;5116808;27;20278;-66
2023/05/31 08:38:52;;;;;;;;;;;28.60;92.60;;;;;;5133454;27;20419;-66
2023/05/31 08:41:18;;;;;;;;;;;28.90;92.70;;;;;;5134742;27;19930;-66
2023/05/31 08:43:44;;;;;;;;;;;28.70;92.10;;;;;;5133085;27;19927;-66
2023/05/31 08:46:10;;;;;;;;;;;28.50;91.60;;;;;;5134335;27;19931;-66
2023/05/31 08:48:42;;;;;;;;;;;28.10;92.10;;;;;;5132497;27;19923;-66
2023/05/31 08:51:08;;;;;;;;;;;27.70;92.00;;;;;;5134727;27;19923;-65
2023/05/31 08:53:34;;;;;;;;;;;27.10;92.60;;;;;;5134315;27;20077;-66
2023/05/31 08:56:06;;;;;;;;;;;26.40;93.10;;;;;;5134316;27;19924;-66
2023/05/31 08:58:32;;;;;;;;;;;26.10;93.70;;;;;;5132508;27;20001;-66
2023/05/31 09:00:59;;;;;;;;;;;26.50;94.10;;;;;;5132409;27;19976;-65
2023/05/31 09:03:25;;;;;;;;;;;26.40;94.20;;;;;;5134369;27;20325;-65
2023/05/31 09:05:51;;;;;;;;;;;26.70;94.30;;;;;;5132947;27;19924;-66
2023/05/31 09:08:16;;;;;;;;;;;26.50;94.20;;;;;;5133339;27;19971;-66
2023/05/31 09:10:42;;;;;;;;;;;26.70;94.40;;;;;;5133935;27;19927;-66
2023/05/31 09:13:08;;;;;;;;;;;26.30;94.20;;;;;;5132925;27;20027;-64
2023/05/31 09:15:35;;;;;;;;;;;25.90;94.40;;;;;;5134186;27;19924;-66
2023/05/31 09:18:18;;;;;;;;;;;25.30;94.70;;;;;;5132915;27;20013;-67
2023/05/31 09:20:46;;;;;;;8.40;3.47;;;24.90;95.10;;;;;;5132291;27;19963;-64
2023/05/31 09:23:12;;;;;;;11.05;3.88;;;24.90;95.00;;;;;;5132416;27;20183;-65
2023/05/31 09:25:52;;;;;;;10.75;3.60;;;25.10;95.20;;;;;;5132991;27;20150;-66
2023/05/31 09:28:18;;;;;;;;;;;25.60;95.30;;;;;;5134021;27;19919;-66
2023/05/31 09:30:44;;;;;;;;;;;25.90;94.00;;;;;;5133645;27;19919;-66
2023/05/31 09:33:10;;;;;;;;;;;26.00;93.90;;;;;;5133758;27;20002;-67
2023/05/31 09:35:36;;;;;;;;;;;26.00;94.40;;;;;;5133395;27;19919;-67
2023/05/31 09:38:06;;;;;;;;;;;26.00;94.00;;;;;;5133277;27;20487;-67
2023/05/31 09:40:35;;;;;;;;;;;26.00;94.00;;;;;;5133636;27;20257;-66
2023/05/31 09:43:00;;;;;;;;;;;25.80;94.00;;;;;;5098552;27;19919;-68
2023/05/31 09:45:28;;;;;;;;;;;25.90;93.60;;;;;;5132590;27;20056;-66
2023/05/31 09:47:54;;;;;;;;;;;25.60;93.70;;;;;;5129457;27;20264;-66
2023/05/31 09:50:21;;;;;;;;;;;25.20;93.90;;;;;;5132816;27;20010;-66
2023/05/31 09:52:48;;;;;;;;;;;25.10;94.40;;;;;;5131309;27;19926;-66
2023/05/31 09:55:14;;;;;;;;;;;25.00;94.50;;;;;;5132929;27;19963;-66
2023/05/31 09:57:41;;;;;;;;;;;24.40;94.30;;;;;;5166027;27;19974;-68
2023/05/31 10:00:18;;;;;;;;;;;23.90;94.80;;;;;;5132902;27;19927;-65
2023/05/31 10:02:43;;;;;;;;;;;23.50;94.90;;;;;;5131230;27;19919;-66
2023/05/31 10:05:09;;;;;;;;;;;23.40;95.30;;;;;;5129586;27;19972;-66
2023/05/31 10:07:36;;;;;;;;;;;23.20;96.00;;;;;;5165968;27;19926;-66
2023/05/31 10:10:01;;;;;;;;;;;23.10;95.70;;;;;;5164437;27;19915;-68
2023/05/31 10:12:29;;;;;;;;;;;23.10;95.90;;;;;;5132016;27;19922;-66
2023/05/31 10:15:02;;;;;;;;;;;23.10;96.30;;;;;;5131393;28;20014;-66
2023/05/31 10:17:29;;;;;;;;;;;23.20;96.30;;;;;;5132152;27;19919;-65
2023/05/31 10:20:04;;;;;;;;;;;23.30;95.90;;;;;;5132480;27;20432;-65
2023/05/31 10:22:31;;;;;;;;;;;23.10;96.30;;;;;;5132904;27;19919;-66
2023/05/31 10:25:02;;;;;;;;;;;23.00;96.60;;;;;;5131548;28;19919;-66
2023/05/31 10:27:29;;;;;;;;;;;23.00;96.40;;;;;;5132986;27;19920;-65
2023/05/31 10:29:56;;;;;;;;;;;22.80;96.10;;;;;;5131487;28;19923;-64
2023/05/31 10:32:24;;;;;;;;;;;22.70;96.40;;;;;;5132921;27;19971;-64
2023/05/31 10:34:50;;;;;;;;;;;22.40;96.10;;;;;;5132623;27;19919;-64
2023/05/31 10:37:15;;;;;;;;;;;22.30;97.00;;;;;;5166194;27;19942;-64
2023/05/31 10:39:48;;;;;;;;;;;22.40;96.90;;;;;;5114212;28;19919;-63
2023/05/31 10:42:40;;;;;;;;;;;22.50;96.70;;;;;;5132629;27;19916;-67
2023/05/31 10:45:15;;;;;;;;;;;22.60;96.70;;;;;;5107410;28;19919;-63
2023/05/31 10:47:53;;;;;;;;;;;22.40;96.50;;;;;;5115871;27;19926;-64
2023/05/31 10:50:22;;;;;;;;;;;22.40;96.90;;;;;;5135947;27;20268;-66
2023/05/31 10:52:48;;;;;;;;;;;22.40;96.90;;;;;;5135506;27;19995;-65
2023/05/31 10:55:37;;;;;;;;;;;22.40;97.00;;;;;;5136780;27;19995;-65
2023/05/31 10:58:03;;;;;;;;;;;22.40;97.10;;;;;;5134337;27;20429;-64
2023/05/31 11:00:28;;;;;;;;;;;22.30;97.20;;;;;;5135402;27;20046;-65
2023/05/31 11:02:58;;;;;;;;;;;22.10;97.30;;;;;;5118022;27;19925;-65
2023/05/31 11:05:25;;;;;;;;;;;22.00;97.60;;;;;;5135358;27;19972;-65
2023/05/31 11:07:52;;;;;;;;;;;22.10;97.90;;;;;;5134733;27;20372;-65
2023/05/31 11:10:32;;;;;;;;;;;22.10;97.10;;;;;;5118367;27;19958;-65
2023/05/31 11:12:58;;;;;;;;;;;;;;;;;;5135172;27;20368;-66
2023/05/31 11:15:24;;;;;;;;;;;;;;;;;;5135636;27;19976;-65
2023/05/31 11:17:50;;;;;;;;;;;;;;;;;;5152100;27;19919;-65
2023/05/31 11:20:16;;;;;;;;;;;21.80;97.70;;;;;;5135550;27;19923;-65
2023/05/31 11:22:42;;;;;;;;;;;21.60;98.10;;;;;;5135294;27;19970;-65
2023/05/31 11:25:09;;;;;;;;;;;21.40;97.90;;;;;;5135875;27;20360;-65
2023/05/31 11:27:39;;;;;;;;;;;21.30;98.20;;;;;;5135161;27;19998;-66
2023/05/31 11:30:08;;;;;;;;;;;21.40;98.30;;;;;;5134470;27;19920;-65
2023/05/31 11:32:34;;;;;;;;;;;21.40;97.80;;;;;;5135323;27;20392;-65
2023/05/31 11:35:02;;;;;;;;;;;21.20;97.90;;;;;;5135056;27;20026;-67
2023/05/31 11:37:29;;;;;;;;;;;21.10;97.80;;;;;;5118205;27;20007;-66
2023/05/31 11:39:55;;;;;;;;;;;21.10;98.10;;;;;;5168825;27;20345;-66
2023/05/31 11:42:21;;;;;;;;;;;21.10;98.20;;;;;;5135089;27;19926;-67
2023/05/31 11:44:47;;;;;;;;;;;21.00;98.10;;;;;;5136230;27;19920;-67
2023/05/31 11:47:32;;;;;;;;;;;21.10;98.20;;;;;;5116719;27;19923;-66
2023/05/31 11:49:57;;;;;;;;;;;21.10;98.50;;;;;;5132345;27;20417;-69
2023/05/31 11:52:23;;;;;;;;;;;21.20;98.20;;;;;;5128966;27;20010;-65
2023/05/31 11:54:49;;;;;;;;;;;21.30;98.40;;;;;;5133192;27;20006;-65
2023/05/31 11:57:16;;;;;;;;;;;21.50;98.30;;;;;;5115694;27;20164;-65
2023/05/31 11:59:42;;;;;;;;;;;21.40;98.00;;;;;;5133550;27;19970;-67
2023/05/31 12:02:09;;;;;;;;;;;21.30;97.70;;;;;;5112813;27;20387;-66
2023/05/31 12:04:36;;;;;;;;;;;21.30;98.10;;;;;;5135010;27;19919;-66
2023/05/31 12:07:06;;;;;;;;;;;21.30;97.80;;;;;;5133395;27;19919;-65
2023/05/31 12:09:33;;;;;;;;;;;21.30;97.70;;;;;;5131197;27;19919;-66
2023/05/31 12:11:59;;;;;;;;;;;21.10;98.10;;;;;;5132467;27;19923;-66
2023/05/31 12:14:26;;;;;;;;;;;20.90;97.70;;;;;;5134682;27;19927;-69
2023/05/31 12:16:52;;;;;;;;;;;20.80;97.90;;;;;;5133782;27;20444;-67
2023/05/31 12:19:18;;;;;;;;;;;20.60;98.30;;;;;;5132194;27;19969;-67
2023/05/31 12:21:44;;;;;;;;;;;20.60;99.00;;;;;;5151176;27;19950;-68
2023/05/31 12:24:13;;;;;;;;;;;20.80;98.70;;;;;;5151114;27;19927;-67
2023/05/31 12:26:39;;;;;;;;;;;20.90;98.30;;;;;;5116501;27;20391;-66
2023/05/31 12:29:05;;;;;;;;;;;20.80;98.40;;;;;;5133683;27;19920;-67
2023/05/31 12:31:33;;;;;;;;;;;20.70;98.50;;;;;;5134190;27;19919;-67
2023/05/31 12:34:05;;;;;;;;;;;20.70;98.70;;;;;;5151001;27;20017;-69
2023/05/31 12:36:37;;;;;;;;;;;20.70;98.70;;;;;;5133688;27;20360;-67
2023/05/31 12:39:06;;;;;;;;;;;20.70;98.60;;;;;;5133218;27;19968;-67
2023/05/31 12:41:32;;;;;;;;;;;20.80;98.60;;;;;;5133727;27;19943;-68
2023/05/31 12:43:58;;;;;;;;;;;20.70;98.30;;;;;;5133674;27;20477;-66
2023/05/31 12:46:23;;;;;;;;;;;20.60;98.50;;;;;;5132601;27;20360;-66
2023/05/31 12:48:50;;;;;;;;;;;20.40;98.70;;;;;;5133273;27;19926;-67
2023/05/31 12:51:22;;;;;;;;;;;20.30;98.90;;;;;;5116086;27;20017;-66
2023/05/31 12:53:48;;;;;;;;;;;20.40;99.10;;;;;;5133613;27;19919;-67
2023/05/31 12:56:14;;;;;;;;;;;20.40;99.50;;;;;;5115610;27;20253;-67
2023/05/31 12:58:39;;;;;;;;;;;20.50;99.20;;;;;;5150159;27;20014;-67
2023/05/31 13:01:07;;;;;;;;;;;20.50;99.00;;;;;;5132733;27;20356;-68
2023/05/31 13:03:33;;;;;;;;;;;20.30;99.10;;;;;;5133272;27;20354;-68
2023/05/31 13:05:59;;;;;;;;;;;20.10;99.50;;;;;;5134323;27;19931;-69
2023/05/31 13:08:24;;;;;;;;;;;20.10;99.50;;;;;;5132759;27;19927;-69
2023/05/31 13:10:50;;;;;;;;;;;20.10;99.90;;;;;;5133599;27;19919;-69
2023/05/31 13:13:16;;;;;;;;;;;20.10;99.50;;;;;;5132512;27;19920;-68
2023/05/31 13:15:41;;;;;;;;;;;20.10;99.40;;;;;;5133005;27;19927;-69
2023/05/31 13:18:07;;;;;;;;;;;20.10;99.50;;;;;;5115501;27;19919;-69
2023/05/31 13:20:32;;;;;;;;;;;20.30;99.90;;;;;;5132811;27;20387;-71
2023/05/31 13:22:58;;;;;;;;;;;20.40;99.90;;;;;;5115865;27;19967;-69
2023/05/31 13:25:24;;;;;;;;;;;20.40;99.90;;;;;;5132427;27;20564;-69
2023/05/31 13:27:49;;;;;;;;;;;20.40;99.70;;;;;;5132979;27;19926;-68
2023/05/31 13:30:15;;;;;;;;;;;20.30;99.90;;;;;;5132239;27;19919;-69
2023/05/31 13:32:41;;;;;;;;;;;20.20;99.80;;;;;;5133923;27;19927;-68
2023/05/31 13:35:08;;;;;;;;;;;20.10;99.90;;;;;;5132541;27;20015;-71
2023/05/31 13:37:34;;;;;;;;;;;20.00;99.90;;;;;;5150120;27;19942;-69
2023/05/31 13:40:00;;;;;;;;;;;20.00;99.90;;;;;;5098394;27;20076;-69
2023/05/31 13:42:26;;;;;;;;;;;20.00;99.90;;;;;;5133380;27;20131;-69
2023/05/31 13:44:51;;;;;;;;;;;19.80;99.90;;;;;;5132700;27;19923;-69
2023/05/31 13:47:17;;;;;;;;;;;19.80;99.90;;;;;;5114515;27;20380;-69
2023/05/31 13:49:42;;;;;;;;;;;19.70;99.90;;;;;;5132502;27;19961;-70
2023/05/31 13:52:09;;;;;;;;;;;19.70;99.90;;;;;;5098065;27;19923;-71
2023/05/31 13:54:35;;;;;;;;;;;19.70;99.90;;;;;;5132549;27;19919;-69
2023/05/31 13:57:01;;;;;;;;;;;19.60;99.90;;;;;;5132255;27;20022;-69
2023/05/31 13:59:27;;;;;;;;;;;19.60;99.90;;;;;;5131824;27;20026;-69
2023/05/31 14:01:53;;;;;;;;;;;19.60;99.90;;;;;;5133175;27;19919;-68
2023/05/31 14:04:18;;;;;;;;;;;19.50;99.90;;;;;;5132088;27;20022;-67
2023/05/31 14:06:45;;;;;;;;;;;19.40;99.90;;;;;;5115257;27;19919;-67
2023/05/31 14:09:11;;;;;;;;;;;19.40;99.90;;;;;;5132856;27;19972;-69
2023/05/31 14:11:36;;;;;;;;;;;19.30;99.90;;;;;;5115073;28;19923;-67
2023/05/31 14:14:03;;;;;;;;;;;19.20;99.90;;;;;;5098064;28;19919;-67
2023/05/31 14:16:28;;;;;;;;;;;19.30;99.90;;;;;;5114970;28;19924;-67
2023/05/31 14:18:54;;;;;;;;;;;19.30;99.90;;;;;;5132051;28;19926;-67
2023/05/31 14:21:19;;;;;;;;;;;19.30;99.90;;;;;;5114361;28;19963;-67